Time;durP1;ratioP1;P1;durP2;ratioP2;P2;SDS_P1;SDS_P2;PMS_P1;PMS_P2;Temp;Humidity;BMP_temperature;BMP_pressure;BME280_temperature;BME280_humidity;BME280_pressure;Samples;Min_cycle;Max_cycle;Signal;HPM_P1;HPM_P2
2021/06/28 00:01:12;;;;;;;2.67;2.45;;;18.20;99.90;;;;;;5032147;28;20032;-81
2021/06/28 00:03:39;;;;;;;3.22;2.55;;;18.20;99.90;;;;;;5042837;28;20037;-82
2021/06/28 00:06:06;;;;;;;3.33;2.72;;;18.20;99.90;;;;;;5054556;28;20037;-83
2021/06/28 00:08:32;;;;;;;4.07;2.65;;;18.20;99.90;;;;;;5069630;28;20151;-83
2021/06/28 00:10:58;;;;;;;5.22;3.20;;;18.10;99.90;;;;;;5079713;28;20025;-82
2021/06/28 00:13:24;;;;;;;3.35;3.00;;;18.10;99.90;;;;;;5069861;28;20106;-82
2021/06/28 00:15:51;;;;;;;3.15;2.85;;;18.10;99.90;;;;;;5061349;28;20029;-80
2021/06/28 00:18:17;;;;;;;4.70;3.13;;;18.10;99.90;;;;;;5078127;28;20039;-81
2021/06/28 00:20:44;;;;;;;4.88;3.40;;;18.10;99.90;;;;;;5071822;28;20511;-80
2021/06/28 00:23:10;;;;;;;3.72;3.17;;;18.10;99.90;;;;;;5065332;28;20033;-81
2021/06/28 00:25:36;;;;;;;2.50;2.25;;;18.10;99.90;;;;;;5052276;28;20087;-80
2021/06/28 00:28:04;;;;;;;4.10;3.30;;;18.00;99.90;;;;;;5042484;28;20032;-80
2021/06/28 00:30:33;;;;;;;3.30;3.00;;;18.00;99.90;;;;;;5059896;28;20025;-82
2021/06/28 00:32:59;;;;;;;2.85;2.53;;;18.00;99.90;;;;;;5034875;28;20037;-80
2021/06/28 00:35:24;;;;;;;4.53;3.58;;;17.90;99.90;;;;;;5071279;28;20510;-81
2021/06/28 00:37:51;;;;;;;4.95;4.05;;;17.90;99.90;;;;;;5045281;28;20029;-81
2021/06/28 00:40:18;;;;;;;3.53;3.22;;;17.90;99.90;;;;;;5059067;28;20060;-81
2021/06/28 00:42:44;;;;;;;3.53;3.22;;;17.90;99.90;;;;;;5061199;28;20029;-81
2021/06/28 00:45:17;;;;;;;5.07;3.75;;;17.80;99.90;;;;;;5065740;28;20025;-82
2021/06/28 00:47:43;;;;;;;4.10;3.28;;;17.80;99.90;;;;;;5072903;28;20040;-81
2021/06/28 00:50:09;;;;;;;4.85;3.22;;;17.80;99.90;;;;;;5076001;28;20032;-81
2021/06/28 00:52:35;;;;;;;3.45;3.13;;;17.80;99.90;;;;;;5059999;28;20124;-80
2021/06/28 00:55:01;;;;;;;4.55;3.50;;;17.70;99.90;;;;;;5046518;28;20048;-80
2021/06/28 00:57:27;;;;;;;6.25;2.92;;;17.70;99.90;;;;;;5050439;28;20036;-80
2021/06/28 00:59:53;;;;;;;3.90;3.50;;;17.70;99.90;;;;;;5073733;28;20033;-82
2021/06/28 01:02:19;;;;;;;3.78;2.97;;;17.60;99.90;;;;;;5079833;28;20035;-83
2021/06/28 01:04:44;;;;;;;4.05;3.55;;;17.60;99.90;;;;;;5054807;28;20086;-82
2021/06/28 01:07:11;;;;;;;3.00;2.70;;;17.60;99.90;;;;;;5064415;28;20075;-83
2021/06/28 01:09:36;;;;;;;3.55;2.42;;;17.60;99.90;;;;;;5035241;28;20086;-82
2021/06/28 01:12:04;;;;;;;3.50;3.03;;;17.60;99.90;;;;;;5059152;28;20036;-83
2021/06/28 01:14:30;;;;;;;5.40;3.85;;;17.60;99.90;;;;;;5032786;28;20036;-81
2021/06/28 01:16:56;;;;;;;3.42;3.03;;;17.60;99.90;;;;;;5048844;28;20056;-81
2021/06/28 01:19:27;;;;;;;3.55;3.25;;;17.60;99.90;;;;;;5063920;28;20044;-80
2021/06/28 01:21:57;;;;;;;4.20;3.63;;;17.60;99.90;;;;;;5054452;28;20092;-81
2021/06/28 01:24:23;;;;;;;;;;;17.60;99.90;;;;;;5055478;28;20065;-83
2021/06/28 01:26:49;;;;;;;5.60;3.50;;;17.50;99.90;;;;;;5078165;28;19909;-82
2021/06/28 01:29:15;;;;;;;5.65;3.70;;;17.50;99.90;;;;;;5051299;28;20033;-81
2021/06/28 01:31:40;;;;;;;3.97;3.58;;;17.50;99.90;;;;;;5061717;28;20033;-82
2021/06/28 01:34:06;;;;;;;4.20;3.78;;;17.50;99.90;;;;;;5048645;28;20036;-84
2021/06/28 01:36:32;;;;;;;5.40;3.97;;;17.40;99.90;;;;;;5054818;28;20025;-83
2021/06/28 01:38:57;;;;;;;4.68;4.18;;;17.40;99.90;;;;;;5051432;28;20135;-84
2021/06/28 01:41:23;;;;;;;4.80;4.22;;;17.50;99.90;;;;;;5064362;28;20033;-84
2021/06/28 01:43:51;;;;;;;4.80;4.13;;;17.50;99.90;;;;;;5074210;28;20446;-84
2021/06/28 01:46:17;;;;;;;5.65;3.90;;;17.50;99.90;;;;;;5056601;28;20091;-82
2021/06/28 01:48:43;;;;;;;4.53;3.92;;;17.40;99.90;;;;;;5059825;28;20488;-82
2021/06/28 01:51:10;;;;;;;5.65;4.88;;;17.40;99.90;;;;;;5034261;28;20086;-81
2021/06/28 01:53:37;;;;;;;4.32;3.92;;;17.40;99.90;;;;;;5061862;28;20028;-82
2021/06/28 01:56:05;;;;;;;7.68;4.72;;;17.30;99.90;;;;;;5055928;28;20526;-82
2021/06/28 01:58:35;;;;;;;4.53;4.13;;;17.30;99.90;;;;;;5054128;28;20037;-82
2021/06/28 02:01:01;;;;;;;5.13;4.45;;;17.40;99.90;;;;;;5081493;28;20107;-83
2021/06/28 02:03:27;;;;;;;5.57;5.03;;;17.40;99.90;;;;;;5065929;28;20035;-82
2021/06/28 02:05:56;;;;;;;4.95;4.13;;;17.30;99.90;;;;;;5048078;28;20037;-83
2021/06/28 02:08:30;;;;;;;4.68;4.18;;;17.30;99.90;;;;;;5047684;28;20037;-82
2021/06/28 02:11:03;;;;;;;5.57;4.00;;;17.30;99.90;;;;;;5047957;28;20043;-82
2021/06/28 02:13:31;;;;;;;4.72;4.22;;;17.30;99.90;;;;;;5085686;28;20025;-82
2021/06/28 02:15:57;;;;;;;5.15;4.65;;;17.20;99.90;;;;;;5067577;28;20099;-82
2021/06/28 02:18:25;;;;;;;5.30;4.50;;;17.20;99.90;;;;;;5051222;28;20032;-82
2021/06/28 02:20:57;;;;;;;4.20;3.80;;;17.20;99.90;;;;;;5068391;28;20122;-82
2021/06/28 02:23:24;;;;;;;5.10;4.60;;;17.10;99.90;;;;;;5068594;28;20399;-82
2021/06/28 02:25:56;;;;;;;5.55;4.57;;;17.20;99.90;;;;;;5068386;28;20024;-81
2021/06/28 02:28:28;;;;;;;6.22;4.97;;;17.10;99.90;;;;;;5086259;28;20097;-82
2021/06/28 02:30:56;;;;;;;5.80;4.72;;;17.10;99.90;;;;;;5086327;28;20460;-82
2021/06/28 02:33:22;;;;;;;5.20;4.70;;;17.00;99.90;;;;;;5056932;28;20029;-82
2021/06/28 02:35:48;;;;;;;5.82;5.22;;;17.00;99.90;;;;;;5047349;28;20029;-82
2021/06/28 02:38:17;;;;;;;5.70;5.18;;;17.00;99.90;;;;;;5047989;28;20047;-82
2021/06/28 02:40:43;;;;;;;5.25;4.78;;;17.00;99.90;;;;;;5048044;28;20040;-82
2021/06/28 02:43:09;;;;;;;4.95;4.47;;;17.00;99.90;;;;;;5048233;28;20097;-82
2021/06/28 02:45:36;;;;;;;4.80;4.40;;;16.90;99.90;;;;;;5031821;28;20029;-80
2021/06/28 02:48:02;;;;;;;5.13;4.50;;;16.90;99.90;;;;;;5041669;23;20534;-83
2021/06/28 02:50:29;;;;;;;5.70;4.88;;;16.90;99.90;;;;;;5045944;28;20151;-84
2021/06/28 02:52:55;;;;;;;5.50;4.90;;;16.80;99.90;;;;;;5066187;28;20036;-83
2021/06/28 02:55:21;;;;;;;5.13;4.60;;;16.80;99.90;;;;;;5045016;28;20033;-83
2021/06/28 02:57:47;;;;;;;4.90;4.40;;;16.80;99.90;;;;;;5040058;28;20449;-83
2021/06/28 03:00:15;;;;;;;7.30;5.03;;;16.80;99.90;;;;;;5065059;28;20299;-82
2021/06/28 03:02:41;;;;;;;6.40;5.20;;;16.70;99.90;;;;;;5064805;28;20025;-81
2021/06/28 03:05:09;;;;;;;4.85;4.40;;;16.70;99.90;;;;;;5047889;28;20506;-81
2021/06/28 03:07:35;;;;;;;4.90;4.47;;;16.70;99.90;;;;;;5064498;28;20052;-82
2021/06/28 03:10:04;;;;;;;6.05;5.40;;;16.60;99.90;;;;;;5048113;28;20053;-82
2021/06/28 03:12:29;;;;;;;7.30;4.82;;;16.50;99.90;;;;;;5048086;28;20085;-81
2021/06/28 03:14:58;;;;;;;3.92;3.53;;;16.50;99.90;;;;;;5048016;28;20071;-82
2021/06/28 03:17:24;;;;;;;5.65;4.43;;;16.60;99.90;;;;;;5031054;28;20491;-81
2021/06/28 03:19:49;;;;;;;6.53;4.75;;;16.70;99.90;;;;;;5047541;28;20041;-81
2021/06/28 03:22:18;;;;;;;5.10;4.40;;;16.60;99.90;;;;;;5047533;28;20528;-81
2021/06/28 03:24:44;;;;;;;5.75;4.72;;;16.40;99.90;;;;;;5065557;28;20029;-81
2021/06/28 03:27:10;;;;;;;5.28;4.47;;;16.40;99.90;;;;;;5065369;28;20086;-82
2021/06/28 03:29:36;;;;;;;5.00;4.30;;;16.40;99.90;;;;;;5047615;28;20104;-83
2021/06/28 03:32:02;;;;;;;5.05;4.45;;;16.40;99.90;;;;;;5065298;28;20028;-82
2021/06/28 03:34:28;;;;;;;4.85;4.28;;;16.40;99.90;;;;;;5064138;28;20033;-82
2021/06/28 03:36:53;;;;;;;5.72;5.15;;;16.40;99.90;;;;;;5047319;28;20044;-83
2021/06/28 03:39:19;;;;;;;5.38;4.88;;;16.40;99.90;;;;;;5065371;28;20044;-83
2021/06/28 03:41:44;;;;;;;5.88;5.13;;;16.30;99.90;;;;;;5047468;28;20466;-82
2021/06/28 03:44:10;;;;;;;5.07;4.53;;;16.30;99.90;;;;;;5065473;28;20029;-83
2021/06/28 03:46:36;;;;;;;4.85;4.25;;;16.40;99.90;;;;;;5047009;28;20033;-83
2021/06/28 03:49:02;;;;;;;6.55;5.57;;;16.40;99.90;;;;;;5050638;28;20064;-84
2021/06/28 03:51:28;;;;;;;5.97;5.45;;;16.50;99.90;;;;;;5068755;28;20105;-84
2021/06/28 03:53:53;;;;;;;8.40;5.18;;;16.40;99.90;;;;;;5050782;28;20033;-83
2021/06/28 03:56:19;;;;;;;4.60;4.20;;;16.40;99.90;;;;;;5050270;28;20036;-82
2021/06/28 03:58:45;;;;;;;5.00;3.88;;;16.40;99.90;;;;;;5050463;28;20404;-83
2021/06/28 04:01:11;;;;;;;6.65;4.85;;;16.30;99.90;;;;;;5068334;28;20380;-83
2021/06/28 04:03:38;;;;;;;6.18;5.45;;;16.20;99.90;;;;;;5050403;28;20067;-84
2021/06/28 04:06:06;;;;;;;5.35;4.82;;;16.20;99.90;;;;;;5047091;28;20033;-83
2021/06/28 04:08:33;;;;;;;4.78;4.38;;;16.30;99.90;;;;;;5067875;28;20477;-81
2021/06/28 04:10:59;;;;;;;4.85;4.35;;;16.30;99.90;;;;;;5037535;28;20033;-83
2021/06/28 04:13:25;;;;;;;5.55;4.70;;;16.30;99.90;;;;;;5030193;28;20463;-83
2021/06/28 04:15:51;;;;;;;4.47;4.07;;;16.30;99.90;;;;;;5047935;28;20482;-84
2021/06/28 04:18:16;;;;;;;5.22;4.75;;;16.30;99.90;;;;;;5029844;28;20036;-83
2021/06/28 04:20:42;;;;;;;4.90;4.40;;;16.30;99.90;;;;;;5048107;28;20037;-84
2021/06/28 04:23:08;;;;;;;5.63;5.13;;;16.30;99.90;;;;;;5063925;28;20036;-84
2021/06/28 04:25:33;;;;;;;7.18;5.70;;;16.40;99.90;;;;;;5050392;28;20033;-84
2021/06/28 04:27:59;;;;;;;6.85;6.00;;;16.50;99.90;;;;;;5068818;28;20008;-83
2021/06/28 04:30:24;;;;;;;5.90;5.30;;;16.50;99.90;;;;;;5049710;28;20473;-81
2021/06/28 04:32:51;;;;;;;6.07;5.40;;;16.60;99.90;;;;;;5049515;28;20071;-83
2021/06/28 04:35:24;;;;;;;6.28;5.10;;;16.70;99.90;;;;;;5066391;28;20032;-81
2021/06/28 04:37:51;;;;;;;5.53;4.82;;;16.80;99.90;;;;;;5032445;28;20025;-80
2021/06/28 04:40:19;;;;;;;6.25;5.38;;;16.80;99.90;;;;;;5065999;28;20043;-81
2021/06/28 04:42:46;;;;;;;5.07;4.57;;;17.00;99.90;;;;;;5066063;28;20028;-81
2021/06/28 04:45:14;;;;;;;6.18;5.25;;;17.00;99.90;;;;;;5065142;28;20044;-83
2021/06/28 04:47:40;;;;;;;6.40;5.20;;;17.20;99.90;;;;;;5045167;28;20049;-80
2021/06/28 04:50:07;;;;;;;5.82;5.32;;;17.30;99.90;;;;;;5030441;28;20041;-81
2021/06/28 04:52:35;;;;;;;6.63;5.97;;;17.40;99.90;;;;;;5029484;28;20039;-81
2021/06/28 04:55:02;;;;;;;7.05;6.05;;;17.60;99.90;;;;;;5034774;28;20689;-81
2021/06/28 04:57:28;;;;;;;6.25;5.65;;;17.80;99.90;;;;;;5066020;28;20032;-81
2021/06/28 04:59:54;;;;;;;7.03;6.05;;;17.90;99.90;;;;;;5065524;28;20037;-81
2021/06/28 05:02:19;;;;;;;6.28;5.68;;;18.00;99.90;;;;;;5065563;28;20075;-81
2021/06/28 05:04:47;;;;;;;7.30;6.28;;;18.20;99.90;;;;;;5049308;28;20041;-81
2021/06/28 05:07:16;;;;;;;8.43;6.30;;;18.40;99.90;;;;;;5049111;28;20029;-82
2021/06/28 05:09:44;;;;;;;5.78;5.20;;;18.50;99.90;;;;;;5065572;28;20057;-81
2021/06/28 05:12:10;;;;;;;8.02;5.90;;;18.50;99.90;;;;;;5049185;28;20025;-81
2021/06/28 05:14:36;;;;;;;5.68;5.07;;;18.70;99.90;;;;;;5049096;28;20120;-81
2021/06/28 05:17:02;;;;;;;6.22;5.63;;;18.70;99.90;;;;;;5045255;28;20026;-82
2021/06/28 05:19:27;;;;;;;6.63;5.38;;;18.90;99.90;;;;;;5046838;28;20037;-81
2021/06/28 05:21:53;;;;;;;6.03;5.50;;;19.00;99.90;;;;;;5065410;28;20021;-80
2021/06/28 05:24:19;;;;;;;6.45;5.82;;;19.10;99.90;;;;;;5048544;28;20516;-82
2021/06/28 05:26:44;;;;;;;6.63;6.03;;;19.20;99.90;;;;;;5064139;28;20093;-81
2021/06/28 05:29:10;;;;;;;6.68;6.07;;;19.20;99.90;;;;;;5064597;28;20032;-80
2021/06/28 05:31:36;;;;;;;7.75;7.03;;;19.40;99.90;;;;;;5032119;28;20036;-93
2021/06/28 05:34:01;;;;;;;5.97;5.43;;;19.50;99.90;;;;;;5065581;28;20029;-92
2021/06/28 05:36:27;;;;;;;6.60;5.88;;;19.60;99.90;;;;;;5048976;28;20025;-92
2021/06/28 05:38:53;;;;;;;7.25;5.90;;;19.70;99.90;;;;;;5032167;28;20485;-91
2021/06/28 05:44:33;;;;;;;6.60;5.95;;;19.80;99.90;;;;;;5025984;28;20464;-91
2021/06/28 05:46:59;;;;;;;6.57;5.78;;;19.90;99.90;;;;;;5009716;28;20393;-88
2021/06/28 05:49:24;;;;;;;7.38;6.03;;;19.90;99.90;;;;;;5009273;28;20038;-89
2021/06/28 05:51:50;;;;;;;7.30;6.25;;;20.00;99.90;;;;;;5009251;28;20030;-89
2021/06/28 05:54:16;;;;;;;6.88;6.18;;;20.00;99.90;;;;;;5010070;22;20101;-87
2021/06/28 05:57:33;;;;;;;6.43;5.82;;;20.10;99.90;;;;;;5052211;28;20056;-84
2021/06/28 05:59:58;;;;;;;6.50;5.90;;;20.30;99.90;;;;;;5051861;28;20037;-84
2021/06/28 06:02:24;;;;;;;6.18;5.57;;;20.40;99.90;;;;;;5068529;28;20031;-86
2021/06/28 06:04:50;;;;;;;6.03;5.40;;;20.60;99.90;;;;;;5068269;28;20048;-83
2021/06/28 06:07:22;;;;;;;7.40;6.63;;;20.70;99.90;;;;;;5068017;28;20039;-84
2021/06/28 06:09:47;;;;;;;6.28;5.68;;;20.80;99.90;;;;;;5067582;28;20047;-86
2021/06/28 06:12:14;;;;;;;7.40;6.65;;;20.90;99.90;;;;;;5068152;28;20028;-84
2021/06/28 06:14:39;;;;;;;6.28;5.68;;;20.90;99.90;;;;;;5059293;28;20080;-85
2021/06/28 06:17:05;;;;;;;7.32;6.20;;;20.90;99.90;;;;;;5048217;28;20477;-83
2021/06/28 06:19:36;;;;;;;6.15;5.07;;;21.00;99.90;;;;;;5048021;28;20083;-82
2021/06/28 06:22:02;;;;;;;5.60;5.10;;;21.00;99.90;;;;;;5064753;28;20032;-82
2021/06/28 06:24:29;;;;;;;6.40;5.75;;;21.20;99.90;;;;;;5047961;28;20035;-85
2021/06/28 06:26:58;;;;;;;6.97;6.13;;;21.30;99.90;;;;;;5048030;28;20477;-84
2021/06/28 06:29:32;;;;;;;6.45;5.93;;;21.40;99.90;;;;;;5064606;28;20032;-85
2021/06/28 06:32:11;;;;;;;7.22;5.60;;;21.30;99.90;;;;;;5066011;28;20033;-82
2021/06/28 06:34:36;;;;;;;8.25;6.07;;;21.50;99.90;;;;;;5048177;28;20052;-85
2021/06/28 06:37:05;;;;;;;5.70;4.90;;;21.50;99.90;;;;;;5047831;28;20033;-82
2021/06/28 06:39:32;;;;;;;5.68;5.28;;;21.90;99.90;;;;;;5047324;28;20040;-86
2021/06/28 06:41:59;;;;;;;8.52;6.25;;;22.10;99.90;;;;;;5067684;28;20047;-87
2021/06/28 06:44:25;;;;;;;6.03;5.47;;;22.10;99.90;;;;;;5068016;28;20032;-88
2021/06/28 06:46:52;;;;;;;6.55;5.95;;;22.20;99.90;;;;;;5050725;28;20039;-90
2021/06/28 06:49:17;;;;;;;6.18;5.68;;;22.30;99.90;;;;;;5067918;28;20028;-90
2021/06/28 06:51:43;;;;;;;7.22;6.55;;;22.50;99.90;;;;;;5086659;28;20043;-89
2021/06/28 06:54:10;;;;;;;6.70;6.10;;;22.40;99.90;;;;;;5051646;28;20097;-90
2021/06/28 06:56:37;;;;;;;6.07;5.25;;;22.70;99.90;;;;;;5047909;28;20063;-95
2021/06/28 06:59:03;;;;;;;5.90;5.30;;;22.30;99.90;;;;;;5047796;28;20044;-95
2021/06/28 07:01:33;;;;;;;5.43;4.93;;;22.40;99.90;;;;;;5068847;28;20081;-95
2021/06/28 07:03:59;;;;;;;5.82;5.25;;;22.90;99.90;;;;;;5052259;28;20472;-95
2021/06/28 07:06:25;;;;;;;5.28;4.80;;;22.90;99.90;;;;;;5051944;28;20039;-95
2021/06/28 07:08:51;;;;;;;5.25;4.70;;;22.90;99.90;;;;;;5068426;28;20040;-95
2021/06/28 07:11:17;;;;;;;5.80;5.30;;;23.00;99.90;;;;;;5067836;28;20073;-96
2021/06/28 07:13:49;;;;;;;6.78;6.05;;;22.80;99.90;;;;;;5051269;28;20060;-93
2021/06/28 07:16:15;;;;;;;6.65;5.68;;;23.00;99.90;;;;;;5085520;28;20028;-94
2021/06/28 07:18:44;;;;;;;6.38;5.78;;;23.00;99.90;;;;;;5067747;28;20611;-94
2021/06/28 07:21:10;;;;;;;6.47;5.88;;;22.90;99.90;;;;;;5068237;28;20040;-94
2021/06/28 07:23:36;;;;;;;6.90;5.60;;;22.90;99.90;;;;;;5071144;28;20044;-93
2021/06/28 07:26:03;;;;;;;6.88;6.20;;;23.10;99.90;;;;;;5090079;28;20025;-92
2021/06/28 07:28:32;;;;;;;5.13;4.63;;;23.00;99.90;;;;;;5090231;28;20032;-92
2021/06/28 07:30:58;;;;;;;8.95;8.15;;;23.20;99.90;;;;;;5055361;28;20093;-90
2021/06/28 07:33:28;;;;;;;6.75;6.15;;;22.90;99.90;;;;;;5072443;28;20058;-91
2021/06/28 07:35:55;;;;;;;6.53;5.93;;;23.20;99.90;;;;;;5072079;28;20077;-93
2021/06/28 07:38:23;;;;;;;6.10;5.47;;;23.60;99.90;;;;;;5055177;28;20032;-92
2021/06/28 07:40:49;;;;;;;6.72;6.10;;;23.70;99.90;;;;;;5055504;28;20064;-92
2021/06/28 07:43:16;;;;;;;7.53;5.10;;;23.80;99.90;;;;;;5072034;28;20032;-92
2021/06/28 07:45:42;;;;;;;5.97;5.47;;;23.80;99.90;;;;;;5054614;28;20036;-92
2021/06/28 07:48:08;;;;;;;6.32;5.20;;;24.10;99.90;;;;;;5071003;28;20087;-88
2021/06/28 07:50:34;;;;;;;6.70;6.13;;;24.50;99.90;;;;;;5071797;28;20025;-90
2021/06/28 07:52:59;;;;;;;9.30;7.63;;;24.20;99.90;;;;;;5055333;28;20031;-91
2021/06/28 07:55:25;;;;;;;6.38;5.78;;;24.30;99.90;;;;;;5071636;28;20084;-89
2021/06/28 07:57:52;;;;;;;8.52;6.80;;;24.70;99.90;;;;;;5054833;28;20062;-88
2021/06/28 08:00:19;;;;;;;6.20;5.63;;;24.70;99.90;;;;;;5071546;28;20067;-88
2021/06/28 08:02:45;;;;;;;6.65;6.03;;;25.00;99.90;;;;;;5045538;28;20059;-90
2021/06/28 08:05:13;;;;;;;6.47;5.65;;;25.20;99.90;;;;;;5052213;28;20040;-89
2021/06/28 08:07:39;;;;;;;7.00;6.40;;;25.10;99.90;;;;;;5046055;28;20056;-87
2021/06/28 08:10:07;;;;;;;6.47;5.88;;;24.60;99.90;;;;;;5049951;28;20033;-87
2021/06/28 08:12:33;;;;;;;9.30;6.77;;;25.10;99.90;;;;;;5040171;28;20036;-90
2021/06/28 08:14:59;;;;;;;6.28;5.68;;;24.80;99.90;;;;;;5034133;28;20283;-87
2021/06/28 08:17:25;;;;;;;5.43;4.93;;;24.90;99.90;;;;;;5033690;28;20396;-86
2021/06/28 08:19:50;;;;;;;5.65;5.15;;;25.30;99.90;;;;;;5033730;28;20045;-87
2021/06/28 08:22:16;;;;;;;6.20;5.70;;;25.50;99.90;;;;;;5033659;28;20132;-88
2021/06/28 08:24:42;;;;;;;6.63;6.03;;;25.50;99.90;;;;;;5034436;28;20029;-91
2021/06/28 08:27:09;;;;;;;7.50;6.32;;;25.50;99.90;;;;;;5051163;28;20025;-91
2021/06/28 08:29:35;;;;;;;6.90;6.20;;;25.00;99.90;;;;;;5051566;28;20086;-89
2021/06/28 08:32:00;;;;;;;8.60;7.80;;;25.10;99.90;;;;;;5034101;28;20346;-91
2021/06/28 08:34:26;;;;;;;7.63;6.93;;;24.70;99.90;;;;;;5053659;28;20484;-90
2021/06/28 08:36:53;;;;;;;7.30;6.60;;;24.50;99.90;;;;;;5087889;28;20029;-91
2021/06/28 08:39:19;;;;;;;6.05;5.55;;;24.80;99.90;;;;;;5069905;28;20040;-91
2021/06/28 08:41:48;;;;;;;5.50;5.00;;;25.40;99.90;;;;;;5053585;28;20031;-91
2021/06/28 08:44:14;;;;;;;5.80;5.05;;;25.70;99.90;;;;;;5053435;28;20072;-91
2021/06/28 08:46:42;;;;;;;7.13;6.35;;;25.70;99.90;;;;;;5053158;28;20048;-87
2021/06/28 08:49:08;;;;;;;7.10;6.40;;;25.20;99.90;;;;;;5053006;28;20036;-89
2021/06/28 08:51:34;;;;;;;7.13;6.40;;;25.00;99.90;;;;;;5069866;28;20029;-87
2021/06/28 08:54:08;;;;;;;7.28;6.57;;;24.90;99.90;;;;;;5053101;28;20029;-89
2021/06/28 08:56:35;;;;;;;6.80;6.28;;;25.10;99.90;;;;;;5052665;28;20048;-85
2021/06/28 08:59:04;;;;;;;8.07;7.28;;;25.50;99.90;;;;;;5069680;28;20039;-88
2021/06/28 09:01:32;;;;;;;5.97;5.47;;;25.50;99.90;;;;;;5087576;28;20035;-88
2021/06/28 09:03:58;;;;;;;6.80;6.20;;;26.00;99.90;;;;;;5053219;28;20070;-92
2021/06/28 09:06:28;;;;;;;6.13;5.60;;;26.30;99.90;;;;;;5069811;28;20036;-92
2021/06/28 09:09:04;;;;;;;4.90;4.50;;;26.00;99.90;;;;;;5052851;28;20047;-92
2021/06/28 09:11:35;;;;;;;5.18;4.28;;;26.40;99.90;;;;;;5053102;28;20112;-91
2021/06/28 09:14:06;;;;;;;6.57;5.97;;;26.50;99.90;;;;;;5052861;28;20060;-90
2021/06/28 09:16:34;;;;;;;5.43;4.93;;;26.50;99.90;;;;;;5052752;28;20480;-90
2021/06/28 09:19:14;;;;;;;4.65;4.25;;;26.60;99.90;;;;;;5069277;28;20041;-91
2021/06/28 09:21:50;;;;;;;5.22;4.72;;;26.50;99.90;;;;;;5052706;28;20035;-89
2021/06/28 09:24:30;;;;;;;5.22;4.25;;;26.80;99.90;;;;;;5052883;28;20036;-90
2021/06/28 09:27:10;;;;;;;5.00;4.60;;;26.80;99.90;;;;;;5052446;28;20072;-90
2021/06/28 09:29:48;;;;;;;5.97;5.43;;;26.90;99.90;;;;;;5052454;28;20490;-89
2021/06/28 09:32:16;;;;;;;5.40;4.95;;;26.60;99.90;;;;;;5068947;28;20069;-92
2021/06/28 09:34:43;;;;;;;5.95;5.35;;;26.10;99.90;;;;;;5052731;28;20039;-92
2021/06/28 09:37:26;;;;;;;6.88;6.18;;;25.70;99.90;;;;;;5052218;28;20069;-93
2021/06/28 09:39:54;;;;;;;6.22;5.68;;;25.40;99.90;;;;;;5069058;28;20074;-92
2021/06/28 09:42:23;;;;;;;7.60;6.87;;;25.20;99.90;;;;;;5052549;28;20145;-92
2021/06/28 09:44:53;;;;;;;6.67;5.90;;;25.00;99.90;;;;;;5051699;28;20028;-92
2021/06/28 09:47:22;;;;;;;5.82;5.22;;;24.90;99.90;;;;;;5068649;28;20032;-93
2021/06/28 09:50:01;;;;;;;8.20;7.40;;;24.80;99.90;;;;;;5052250;28;20491;-87
2021/06/28 09:52:29;;;;;;;11.43;10.32;;;24.70;99.90;;;;;;5068924;28;20102;-92
2021/06/28 09:54:55;;;;;;;8.45;7.63;;;24.40;99.90;;;;;;5051878;28;20040;-92
2021/06/28 09:57:21;;;;;;;9.50;8.63;;;24.60;99.90;;;;;;5086421;28;20035;-92
2021/06/28 09:59:46;;;;;;;9.73;8.73;;;24.40;99.90;;;;;;5068868;28;20434;-92
2021/06/28 10:02:14;;;;;;;9.93;8.95;;;24.30;99.90;;;;;;5052084;28;20029;-91
2021/06/28 10:04:47;;;;;;;8.27;7.55;;;24.20;99.90;;;;;;5068938;28;20068;-92
2021/06/28 10:07:25;;;;;;;10.63;9.63;;;24.20;99.90;;;;;;5051780;28;20468;-93
2021/06/28 10:10:26;;;;;;;7.80;7.03;;;24.20;99.90;;;;;;5068654;28;20391;-91
2021/06/28 10:12:52;;;;;;;7.57;6.95;;;24.20;99.90;;;;;;5010192;28;20089;-94
2021/06/28 10:15:20;;;;;;;7.82;7.05;;;24.30;99.90;;;;;;5068525;28;20036;-91
2021/06/28 10:17:46;;;;;;;6.65;6.05;;;24.30;99.90;;;;;;5068501;28;20048;-91
2021/06/28 10:20:16;;;;;;;7.15;6.55;;;24.40;99.90;;;;;;5068498;28;20040;-93
2021/06/28 10:22:43;;;;;;;8.00;7.30;;;24.20;99.90;;;;;;5051996;28;20105;-92
2021/06/28 10:25:12;;;;;;;8.40;7.60;;;24.10;99.90;;;;;;5051944;28;20119;-92
2021/06/28 10:27:38;;;;;;;8.13;7.32;;;24.20;99.90;;;;;;5052179;28;20040;-92
2021/06/28 10:30:13;;;;;;;7.70;7.00;;;24.30;99.90;;;;;;5051751;28;20360;-92
2021/06/28 10:32:41;;;;;;;7.95;7.15;;;24.40;99.90;;;;;;5062779;28;20096;-92
2021/06/28 10:35:10;;;;;;;9.57;8.68;;;24.40;99.90;;;;;;5048459;28;20033;-91
2021/06/28 10:37:48;;;;;;;9.10;8.15;;;24.20;99.90;;;;;;5031825;28;20063;-92
2021/06/28 10:40:17;;;;;;;8.98;8.07;;;24.20;99.90;;;;;;5031680;28;20040;-92
2021/06/28 10:42:46;;;;;;;8.73;7.63;;;24.40;99.90;;;;;;5048224;28;20051;-93
2021/06/28 10:45:15;;;;;;;8.57;7.25;;;24.50;99.90;;;;;;5031421;28;20047;-93
2021/06/28 10:48:10;;;;;;;7.93;6.90;;;24.60;99.90;;;;;;5031644;28;20031;-91
2021/06/28 10:50:52;;;;;;;7.40;6.70;;;24.50;99.90;;;;;;5031667;28;20043;-92
2021/06/28 10:53:41;;;;;;;8.75;7.85;;;24.40;99.90;;;;;;5031865;28;20029;-92
2021/06/28 10:56:31;;;;;;;8.60;7.78;;;24.50;99.90;;;;;;5044791;28;20060;-92
2021/06/28 10:58:59;;;;;;;9.90;8.93;;;24.20;99.90;;;;;;5050360;28;20078;-91
2021/06/28 11:01:36;;;;;;;9.63;8.13;;;24.00;99.90;;;;;;5042023;28;20024;-92
2021/06/28 11:04:08;;;;;;;8.90;8.00;;;24.00;99.90;;;;;;5050440;28;20036;-90
2021/06/28 11:06:35;;;;;;;7.40;6.68;;;24.00;99.90;;;;;;5050715;28;20039;-92
2021/06/28 11:09:08;;;;;;;8.65;7.75;;;24.10;99.90;;;;;;5067427;28;20040;-91
2021/06/28 11:11:54;;;;;;;6.43;5.82;;;23.90;99.90;;;;;;5066500;28;20024;-85
2021/06/28 11:14:19;;;;;;;28.77;15.35;;;24.20;99.90;;;;;;5067360;28;20044;-86
2021/06/28 11:17:06;;;;;;;24.90;14.18;;;24.20;99.90;;;;;;5050621;28;20032;-85
2021/06/28 11:22:30;;;;;;;15.38;10.77;;;24.30;99.90;;;;;;5043499;28;20056;-85
2021/06/28 11:25:07;;;;;;;26.70;15.85;;;24.20;99.90;;;;;;5050915;28;20035;-85
2021/06/28 11:27:35;;;;;;;15.88;10.93;;;24.00;99.90;;;;;;5085155;28;20032;-85
2021/06/28 11:30:00;;;;;;;17.05;11.68;;;23.90;99.90;;;;;;5067085;28;20077;-85
2021/06/28 11:32:28;;;;;;;12.05;9.73;;;23.80;99.90;;;;;;5050208;28;20039;-84
2021/06/28 11:34:56;;;;;;;9.93;8.93;;;23.60;99.90;;;;;;5050553;28;20043;-87
2021/06/28 11:37:23;;;;;;;9.43;8.45;;;23.60;99.90;;;;;;5067116;28;20357;-85
2021/06/28 11:39:53;;;;;;;10.40;8.90;;;23.60;99.90;;;;;;5067131;28;20045;-85
2021/06/28 11:42:26;;;;;;;9.73;8.82;;;23.50;99.90;;;;;;5085204;28;20048;-86
2021/06/28 11:45:05;;;;;;;9.85;8.07;;;23.40;99.90;;;;;;5067333;28;20108;-85
2021/06/28 11:47:49;;;;;;;9.05;8.15;;;23.60;99.90;;;;;;5066372;28;20029;-85
2021/06/28 11:50:23;;;;;;;10.18;9.02;;;23.60;99.90;;;;;;5066780;28;20037;-86
2021/06/28 11:52:59;;;;;;;9.10;8.20;;;23.60;99.90;;;;;;5079355;28;20031;-84
2021/06/28 11:55:27;;;;;;;9.55;8.52;;;23.70;99.90;;;;;;5054731;28;20076;-84
2021/06/28 11:57:54;;;;;;;13.85;9.77;;;23.60;99.90;;;;;;5031336;28;20025;-82
2021/06/28 12:00:21;;;;;;;10.73;9.70;;;23.60;99.90;;;;;;5049702;28;20044;-85
2021/06/28 12:02:46;;;;;;;10.43;9.43;;;23.60;99.90;;;;;;5049990;28;20020;-85
2021/06/28 12:05:12;;;;;;;9.82;8.88;;;23.70;99.90;;;;;;5050148;28;20455;-84
2021/06/28 12:07:40;;;;;;;11.50;10.40;;;23.60;99.90;;;;;;5066543;28;20029;-85
2021/06/28 12:10:06;;;;;;;12.35;10.27;;;23.70;99.90;;;;;;5069636;28;20384;-86
2021/06/28 12:12:32;;;;;;;11.98;10.52;;;23.70;99.90;;;;;;5070332;28;20096;-85
2021/06/28 12:14:58;;;;;;;15.90;11.05;;;23.70;99.90;;;;;;5053421;28;20064;-85
2021/06/28 12:17:32;;;;;;;12.35;11.05;;;23.80;99.90;;;;;;5069483;28;20028;-84
2021/06/28 12:20:05;;;;;;;12.52;11.23;;;23.90;99.90;;;;;;5070166;28;20032;-84
2021/06/28 12:22:33;;;;;;;12.10;10.90;;;24.00;99.90;;;;;;5053410;28;20024;-85
2021/06/28 12:25:05;;;;;;;16.50;14.35;;;23.90;99.90;;;;;;5084777;28;20283;-86
2021/06/28 12:27:33;;;;;;;11.88;10.43;;;23.90;99.90;;;;;;5060202;28;20489;-84
2021/06/28 12:30:00;;;;;;;10.93;9.48;;;23.80;99.90;;;;;;5063979;28;20116;-85
2021/06/28 12:32:27;;;;;;;11.93;10.68;;;23.90;99.90;;;;;;5069281;28;20029;-84
2021/06/28 12:35:00;;;;;;;11.35;10.18;;;23.90;99.90;;;;;;5049472;28;20056;-85
2021/06/28 12:37:30;;;;;;;14.48;12.98;;;23.90;99.90;;;;;;5034693;28;20029;-86
2021/06/28 12:40:14;;;;;;;12.43;11.13;;;23.80;99.90;;;;;;5050667;28;20052;-86
2021/06/28 12:42:45;;;;;;;13.85;12.45;;;23.90;99.90;;;;;;5049966;28;20033;-84
2021/06/28 12:45:14;;;;;;;12.60;11.27;;;23.80;99.90;;;;;;5068773;28;20081;-84
2021/06/28 12:47:42;;;;;;;16.50;14.75;;;23.90;99.90;;;;;;5069542;28;20052;-84
2021/06/28 12:50:12;;;;;;;14.90;13.30;;;24.00;99.90;;;;;;5059289;28;20051;-85
2021/06/28 12:52:38;;;;;;;16.65;14.93;;;24.00;99.90;;;;;;5049225;28;20036;-83
2021/06/28 12:55:23;;;;;;;14.65;12.57;;;23.90;99.90;;;;;;5048578;28;20068;-85
2021/06/28 12:58:10;;;;;;;14.40;12.98;;;23.80;99.90;;;;;;5048776;28;20052;-85